createdAt,value
2019-01-17T00:00:55.515Z,5.50
2019-01-17T00:03:43.103Z,5.50
2019-01-17T00:06:30.735Z,5.40
2019-01-17T00:09:34.796Z,5.60
2019-01-17T00:12:26.600Z,5.60
2019-01-17T00:15:12.325Z,5.50
2019-01-17T00:17:52.106Z,5.60
2019-01-17T00:20:50.121Z,5.60
2019-01-17T00:23:46.070Z,5.60
2019-01-17T00:26:26.628Z,5.70
2019-01-17T00:29:24.739Z,5.60
2019-01-17T00:32:12.209Z,5.80
2019-01-17T00:34:53.492Z,5.60
2019-01-17T00:37:37.186Z,5.40
2019-01-17T00:40:34.635Z,5.60
2019-01-17T00:43:22.474Z,5.70
2019-01-17T00:46:20.593Z,5.70
2019-01-17T00:49:12.376Z,5.90
2019-01-17T00:52:07.397Z,6.00
2019-01-17T00:54:51.616Z,5.70
2019-01-17T00:57:32.311Z,5.70
2019-01-17T01:00:20.084Z,5.70
2019-01-17T01:03:15.287Z,5.40
2019-01-17T01:05:57.912Z,5.60
2019-01-17T01:08:49.996Z,5.40
2019-01-17T01:11:30.412Z,5.50
2019-01-17T01:14:20.529Z,5.60
2019-01-17T01:17:15.239Z,5.90
2019-01-17T01:19:54.883Z,5.80
2019-01-17T01:22:49.615Z,5.70
2019-01-17T01:25:38.527Z,5.60
2019-01-17T01:28:23.543Z,5.80
2019-01-17T01:31:24.804Z,5.90
2019-01-17T01:34:12.222Z,5.70
2019-01-17T01:36:59.667Z,5.60
2019-01-17T01:39:51.076Z,5.60
2019-01-17T01:42:36.574Z,5.60
2019-01-17T01:45:32.036Z,5.60
2019-01-17T01:48:26.965Z,5.70
2019-01-17T01:51:28.284Z,5.70
2019-01-17T01:53:58.140Z,5.70
2019-01-17T01:56:28.077Z,5.80
2019-01-17T01:58:58.044Z,5.70
2019-01-17T02:01:28.049Z,5.80
2019-01-17T02:03:58.105Z,5.70
2019-01-17T02:06:27.994Z,5.70
2019-01-17T02:08:57.954Z,5.50
2019-01-17T02:11:27.935Z,5.60
2019-01-17T02:13:57.953Z,5.80
2019-01-17T02:16:27.780Z,5.60
2019-01-17T02:18:57.729Z,5.70
2019-01-17T02:21:27.599Z,5.70
2019-01-17T02:23:57.556Z,5.70
2019-01-17T02:26:27.550Z,5.80
2019-01-17T02:28:57.471Z,5.70
2019-01-17T02:31:27.460Z,5.40
2019-01-17T02:33:57.421Z,5.60
2019-01-17T02:36:27.397Z,5.60
2019-01-17T02:38:57.379Z,5.50
2019-01-17T02:41:27.430Z,5.40
2019-01-17T02:43:57.368Z,5.50
2019-01-17T02:46:27.357Z,5.70
2019-01-17T02:48:57.267Z,5.80
2019-01-17T02:51:27.338Z,5.80
2019-01-17T02:53:57.370Z,5.70
2019-01-17T02:56:27.318Z,5.90
2019-01-17T02:58:58.221Z,5.90
2019-01-17T03:01:28.182Z,5.80
2019-01-17T03:03:58.121Z,5.70
2019-01-17T03:06:27.979Z,5.70
2019-01-17T03:08:57.847Z,5.80
2019-01-17T03:11:27.896Z,6.00
2019-01-17T03:13:57.765Z,5.80
2019-01-17T03:16:27.652Z,5.80
2019-01-17T03:18:57.531Z,6.00
2019-01-17T03:21:27.523Z,5.60
2019-01-17T03:23:57.375Z,5.60
2019-01-17T03:26:27.337Z,5.80
2019-01-17T03:28:57.192Z,5.90
2019-01-17T03:31:27.146Z,6.10
2019-01-17T03:33:57.217Z,5.90
2019-01-17T03:36:27.187Z,5.80
2019-01-17T03:38:57.061Z,5.90
2019-01-17T03:41:26.998Z,6.00
2019-01-17T03:43:56.971Z,6.00
2019-01-17T03:46:27.432Z,5.80
2019-01-17T03:48:58.347Z,5.90
2019-01-17T03:51:28.595Z,5.90
2019-01-17T03:53:58.436Z,6.10
2019-01-17T03:56:28.307Z,6.10
2019-01-17T03:58:58.311Z,6.20
2019-01-17T04:01:28.201Z,6.20
2019-01-17T04:03:58.153Z,6.00
2019-01-17T04:10:15.871Z,6.00
2019-01-17T04:12:45.796Z,6.10
2019-01-17T04:15:15.767Z,6.30
2019-01-17T04:17:45.700Z,5.90
2019-01-17T04:20:17.355Z,5.90
2019-01-17T04:22:47.284Z,5.70
2019-01-17T04:25:17.276Z,5.90
2019-01-17T04:27:47.116Z,6.10
2019-01-17T04:30:19.828Z,5.80
2019-01-17T04:32:49.687Z,5.90
2019-01-17T04:35:19.653Z,5.80
2019-01-17T04:37:49.573Z,5.80
2019-01-17T04:40:19.444Z,5.70
2019-01-17T04:42:49.277Z,5.90
2019-01-17T04:45:19.238Z,5.80
2019-01-17T04:47:49.196Z,6.00
2019-01-17T04:50:19.098Z,5.90
2019-01-17T04:52:49.050Z,6.00
2019-01-17T04:55:19.008Z,6.10
2019-01-17T04:57:48.865Z,5.80
2019-01-17T05:00:20.306Z,6.00
2019-01-17T05:02:50.255Z,6.00
2019-01-17T05:05:20.227Z,6.20
2019-01-17T05:07:50.156Z,6.50
2019-01-17T05:10:20.203Z,6.40
2019-01-17T05:12:50.167Z,6.50
2019-01-17T05:15:20.799Z,6.30
2019-01-17T05:17:50.651Z,6.30
2019-01-17T05:20:20.643Z,6.20
2019-01-17T05:22:50.606Z,6.40
2019-01-17T05:25:20.540Z,6.40
2019-01-17T05:27:50.658Z,6.20
2019-01-17T05:30:20.741Z,6.40
2019-01-17T05:32:50.843Z,6.30
2019-01-17T05:35:20.662Z,6.20
2019-01-17T05:37:50.632Z,6.20
2019-01-17T05:40:20.847Z,6.30
2019-01-17T05:42:51.676Z,6.10
2019-01-17T05:45:21.784Z,6.20
2019-01-17T05:47:51.735Z,6.30
2019-01-17T05:50:21.796Z,6.30
2019-01-17T05:52:51.734Z,6.30
2019-01-17T05:55:22.533Z,6.50
2019-01-17T05:57:52.410Z,6.30
2019-01-17T06:00:22.335Z,6.30
2019-01-17T06:02:52.882Z,6.10
2019-01-17T06:05:22.955Z,6.00
2019-01-17T06:07:57.940Z,6.10
2019-01-17T06:10:28.004Z,6.10
2019-01-17T06:12:58.220Z,6.00
2019-01-17T06:15:28.568Z,6.10
2019-01-17T06:17:58.607Z,6.10
2019-01-17T06:20:28.541Z,6.00
2019-01-17T06:22:58.451Z,6.00
2019-01-17T06:25:28.433Z,6.20
2019-01-17T06:27:58.464Z,6.30
2019-01-17T06:30:28.378Z,6.20
2019-01-17T06:32:58.428Z,6.10
2019-01-17T06:35:31.134Z,6.00
2019-01-17T06:38:01.127Z,6.10
2019-01-17T06:40:32.348Z,6.00
2019-01-17T06:43:02.282Z,5.80
2019-01-17T06:45:32.138Z,5.80
2019-01-17T06:48:02.003Z,5.90
2019-01-17T06:50:32.049Z,6.10
2019-01-17T06:53:01.984Z,5.90
2019-01-17T06:55:34.549Z,6.00
2019-01-17T06:58:03.370Z,5.60
2019-01-17T07:00:33.195Z,5.70
2019-01-17T07:03:03.164Z,5.90
2019-01-17T07:05:33.198Z,6.10
2019-01-17T07:08:03.207Z,6.10
2019-01-17T07:10:33.049Z,6.20
2019-01-17T07:13:03.011Z,6.00
2019-01-17T07:15:33.738Z,6.00
2019-01-17T07:18:03.758Z,5.80
2019-01-17T07:20:33.605Z,5.90
2019-01-17T07:23:03.472Z,6.10
2019-01-17T07:25:33.468Z,6.10
2019-01-17T07:28:03.990Z,5.80
2019-01-17T07:30:33.870Z,5.80
2019-01-17T07:33:03.852Z,6.00
2019-01-17T07:35:33.820Z,6.10
2019-01-17T07:38:04.223Z,6.00
2019-01-17T07:40:34.137Z,5.60
2019-01-17T07:43:04.047Z,5.90
2019-01-17T07:45:34.885Z,5.90
2019-01-17T07:48:04.818Z,5.90
2019-01-17T07:50:35.460Z,5.50
2019-01-17T07:53:05.512Z,5.70
2019-01-17T07:55:35.407Z,5.80
2019-01-17T07:58:05.540Z,5.80
2019-01-17T08:00:35.603Z,5.90
2019-01-17T08:03:05.522Z,6.00
2019-01-17T08:05:35.618Z,5.80
2019-01-17T08:08:07.459Z,5.90
2019-01-17T08:10:38.360Z,6.00
2019-01-17T08:13:08.448Z,5.90
2019-01-17T08:15:38.375Z,5.70
2019-01-17T08:18:09.155Z,5.80
2019-01-17T08:20:39.055Z,5.80
2019-01-17T08:23:08.987Z,5.80
2019-01-17T08:25:38.930Z,5.80
2019-01-17T08:28:09.121Z,5.90
2019-01-17T08:30:39.098Z,5.80
2019-01-17T08:33:09.088Z,5.80
2019-01-17T08:35:39.198Z,5.90
2019-01-17T08:38:09.430Z,5.80
2019-01-17T08:40:39.297Z,5.70
2019-01-17T08:43:09.196Z,5.50
2019-01-17T08:45:39.160Z,5.70
2019-01-17T08:48:09.076Z,5.80
2019-01-17T08:50:39.004Z,5.90
2019-01-17T08:53:09.159Z,6.00
2019-01-17T08:55:39.028Z,6.10
2019-01-17T08:58:10.953Z,6.10
2019-01-17T09:00:42.176Z,6.20
2019-01-17T09:03:18.023Z,6.10
2019-01-17T09:05:49.454Z,5.80
2019-01-17T09:08:20.023Z,5.90
2019-01-17T09:10:49.929Z,5.70
2019-01-17T09:13:19.856Z,5.70
2019-01-17T09:15:49.784Z,5.90
2019-01-17T09:18:19.723Z,5.80
2019-01-17T09:20:49.684Z,5.50
2019-01-17T09:23:19.625Z,5.60
2019-01-17T09:25:49.500Z,5.60
2019-01-17T09:28:19.339Z,5.70
2019-01-17T09:30:49.291Z,5.60
2019-01-17T09:33:19.230Z,5.50
2019-01-17T09:35:49.346Z,5.80
2019-01-17T09:38:19.213Z,6.00
2019-01-17T09:40:49.196Z,6.00
2019-01-17T09:43:19.259Z,6.20
2019-01-17T09:45:49.293Z,6.50
2019-01-17T09:48:19.199Z,6.50
2019-01-17T09:50:49.091Z,6.40
2019-01-17T09:53:18.945Z,6.40
2019-01-17T09:55:48.923Z,6.50
2019-01-17T09:58:19.165Z,6.40
2019-01-17T10:00:49.492Z,6.50
2019-01-17T10:03:20.890Z,6.40
2019-01-17T10:05:50.890Z,6.60
2019-01-17T10:08:20.947Z,6.30
2019-01-17T10:10:50.815Z,6.60
2019-01-17T10:13:22.386Z,6.70
2019-01-17T10:16:25.735Z,6.80
2019-01-17T10:19:32.270Z,6.90
2019-01-17T10:22:15.431Z,6.90
2019-01-17T10:25:09.127Z,7.00
2019-01-17T10:28:26.411Z,7.00
2019-01-17T10:31:28.477Z,7.20
2019-01-17T10:34:23.680Z,7.10
2019-01-17T10:37:30.706Z,6.90
2019-01-17T10:40:29.233Z,6.80
2019-01-17T10:43:16.010Z,7.10
2019-01-17T10:46:30.078Z,7.30
2019-01-17T10:49:38.583Z,7.30
2019-01-17T10:52:52.807Z,7.30
2019-01-17T10:56:27.752Z,7.20
2019-01-17T10:59:21.187Z,7.10
2019-01-17T11:02:29.331Z,7.50
2019-01-17T11:06:02.284Z,7.70
2019-01-17T11:09:10.823Z,7.50
2019-01-17T11:12:28.868Z,7.60
2019-01-17T11:15:32.210Z,7.60
2019-01-17T11:18:30.989Z,7.60
2019-01-17T11:21:41.389Z,7.50
2019-01-17T11:24:18.929Z,7.50
2019-01-17T11:27:03.567Z,7.60
2019-01-17T11:29:44.041Z,7.20
2019-01-17T11:32:49.571Z,7.50
2019-01-17T11:35:58.139Z,7.80
2019-01-17T11:39:18.627Z,7.60
2019-01-17T11:42:19.407Z,7.30
2019-01-17T11:45:08.091Z,7.40
2019-01-17T11:48:34.703Z,7.10
2019-01-17T11:51:21.989Z,6.80
2019-01-17T11:54:33.698Z,6.90
2019-01-17T11:58:02.971Z,7.20
2019-01-17T12:01:20.305Z,7.00
2019-01-17T12:04:12.565Z,7.40
2019-01-17T12:06:42.471Z,7.60
2019-01-17T12:09:12.320Z,7.70
2019-01-17T12:11:42.393Z,7.60
2019-01-17T12:14:12.339Z,7.80
2019-01-17T12:16:42.204Z,8.00
2019-01-17T12:19:12.166Z,7.90
2019-01-17T12:21:41.996Z,8.00
2019-01-17T12:24:11.925Z,7.60
2019-01-17T12:26:47.406Z,7.50
2019-01-17T12:29:13.474Z,7.80
2019-01-17T12:31:43.409Z,8.00
2019-01-17T12:34:13.409Z,7.90
2019-01-17T12:36:43.295Z,7.80
2019-01-17T12:39:13.916Z,7.70
2019-01-17T12:41:43.800Z,7.70
2019-01-17T12:44:13.700Z,7.90
2019-01-17T12:46:44.108Z,7.50
2019-01-17T12:49:14.052Z,7.70
2019-01-17T12:51:43.996Z,7.60
2019-01-17T12:54:13.879Z,7.50
2019-01-17T12:56:45.706Z,7.50
2019-01-17T12:59:16.056Z,7.30
2019-01-17T13:01:50.517Z,7.40
2019-01-17T13:04:20.867Z,7.30
2019-01-17T13:06:50.805Z,7.30
2019-01-17T13:09:20.700Z,7.50
2019-01-17T13:11:50.712Z,7.50
2019-01-17T13:14:21.221Z,7.50
2019-01-17T13:16:51.185Z,7.40
2019-01-17T13:19:21.173Z,7.30
2019-01-17T13:21:51.231Z,7.60
2019-01-17T13:24:22.772Z,7.50
2019-01-17T13:26:52.755Z,7.30
2019-01-17T13:29:23.272Z,7.10
2019-01-17T13:31:53.284Z,7.00
2019-01-17T13:34:23.304Z,7.00
2019-01-17T13:36:53.202Z,7.10
2019-01-17T13:39:23.213Z,7.10
2019-01-17T13:41:53.097Z,7.10
2019-01-17T13:44:23.163Z,7.10
2019-01-17T13:46:53.086Z,7.00
2019-01-17T13:49:23.021Z,6.90
2019-01-17T13:51:52.881Z,6.80
2019-01-17T13:54:22.759Z,6.80
2019-01-17T13:56:52.685Z,6.60
2019-01-17T13:59:22.629Z,6.50
2019-01-17T14:01:52.538Z,6.40
2019-01-17T14:04:22.671Z,6.20
2019-01-17T14:06:52.764Z,6.10
2019-01-17T14:09:22.707Z,6.00
2019-01-17T14:11:52.539Z,6.00
2019-01-17T14:14:22.490Z,5.90
2019-01-17T14:16:52.339Z,5.80
2019-01-17T14:19:22.329Z,5.60
2019-01-17T14:21:52.254Z,5.40
2019-01-17T14:24:22.199Z,5.40
2019-01-17T14:26:52.081Z,5.20
2019-01-17T14:29:22.055Z,5.40
2019-01-17T14:31:51.895Z,5.50
2019-01-17T14:34:22.349Z,5.40
2019-01-17T14:36:54.949Z,5.40
2019-01-17T14:39:24.927Z,5.40
2019-01-17T14:41:56.843Z,5.50
2019-01-17T14:44:27.065Z,5.20
2019-01-17T14:46:56.969Z,5.30
2019-01-17T14:49:26.847Z,5.20
2019-01-17T14:51:57.089Z,5.10
2019-01-17T14:54:27.816Z,4.90
2019-01-17T14:56:58.532Z,4.80
2019-01-17T14:59:29.192Z,4.70
2019-01-17T15:01:59.155Z,4.80
2019-01-17T15:04:30.520Z,4.90
2019-01-17T15:07:00.467Z,5.00
2019-01-17T15:09:30.501Z,4.80
2019-01-17T15:12:00.508Z,4.90
2019-01-17T15:14:30.433Z,5.00
2019-01-17T15:17:00.301Z,4.80
2019-01-17T15:19:32.793Z,4.80
2019-01-17T15:22:02.719Z,4.80
2019-01-17T15:24:32.575Z,4.90
2019-01-17T15:27:02.621Z,5.00
2019-01-17T15:29:32.477Z,5.00
2019-01-17T15:32:02.499Z,5.10
2019-01-17T15:34:32.333Z,5.10
2019-01-17T15:37:02.323Z,5.10
2019-01-17T15:39:32.249Z,4.90
2019-01-17T15:42:02.206Z,5.10
2019-01-17T15:44:32.110Z,5.20
2019-01-17T15:47:14.380Z,5.20
2019-01-17T15:49:44.416Z,5.10
2019-01-17T15:52:14.309Z,5.10
2019-01-17T15:54:44.304Z,5.20
2019-01-17T15:57:17.184Z,5.20
2019-01-17T15:59:47.217Z,5.20
2019-01-17T16:02:17.260Z,5.20
2019-01-17T16:04:47.290Z,5.20
2019-01-17T16:07:17.204Z,5.20
2019-01-17T16:09:47.170Z,5.10
2019-01-17T16:12:17.223Z,5.20
2019-01-17T16:14:47.170Z,5.30
2019-01-17T16:17:17.119Z,5.20
2019-01-17T16:19:47.098Z,5.10
2019-01-17T16:22:17.025Z,5.00
2019-01-17T16:24:47.025Z,4.90
2019-01-17T16:27:17.020Z,5.10
2019-01-17T16:29:46.964Z,5.20
2019-01-17T16:32:18.400Z,5.20
2019-01-17T16:34:48.342Z,5.10
2019-01-17T16:37:18.214Z,5.20
2019-01-17T16:39:48.152Z,5.20
2019-01-17T16:42:18.183Z,5.20
2019-01-17T16:44:48.128Z,5.20
2019-01-17T16:47:18.060Z,5.30
2019-01-17T16:49:47.946Z,5.20
2019-01-17T16:52:17.897Z,5.20
2019-01-17T16:54:47.823Z,5.20
2019-01-17T16:57:18.349Z,5.10
2019-01-17T16:59:48.207Z,5.10
2019-01-17T17:02:18.097Z,5.10
2019-01-17T17:04:48.842Z,5.00
2019-01-17T17:07:18.746Z,4.90
2019-01-17T17:09:48.607Z,4.90
2019-01-17T17:12:18.616Z,4.90
2019-01-17T17:14:48.556Z,4.80
2019-01-17T17:17:18.542Z,4.70
2019-01-17T17:19:48.379Z,4.80
2019-01-17T17:22:18.286Z,4.80
2019-01-17T17:24:48.146Z,4.80
2019-01-17T17:27:18.136Z,4.70
2019-01-17T17:29:48.199Z,4.80
2019-01-17T17:32:18.213Z,4.90
2019-01-17T17:34:50.092Z,4.90
2019-01-17T17:37:20.027Z,4.60
2019-01-17T17:39:49.887Z,4.60
2019-01-17T17:42:19.769Z,4.80
2019-01-17T17:44:49.735Z,4.70
2019-01-17T17:47:19.671Z,4.70
2019-01-17T17:49:49.787Z,4.60
2019-01-17T17:52:19.784Z,4.70
2019-01-17T17:54:49.633Z,4.70
2019-01-17T17:57:19.567Z,4.60
2019-01-17T17:59:49.502Z,4.50
2019-01-17T18:02:44.559Z,4.70
2019-01-17T18:05:14.507Z,4.80
2019-01-17T18:07:44.446Z,4.80
2019-01-17T18:10:15.048Z,4.80
2019-01-17T18:12:44.996Z,4.90
2019-01-17T18:15:15.423Z,4.90
2019-01-17T18:17:45.364Z,4.80
2019-01-17T18:20:15.403Z,4.90
2019-01-17T18:22:46.144Z,4.80
2019-01-17T18:25:16.178Z,4.80
2019-01-17T18:27:46.139Z,4.80
2019-01-17T18:30:18.646Z,4.80
2019-01-17T18:32:48.591Z,4.70
2019-01-17T18:35:18.530Z,4.70
2019-01-17T18:37:48.511Z,4.70
2019-01-17T18:40:18.494Z,4.70
2019-01-17T18:42:48.411Z,4.60
2019-01-17T18:45:19.586Z,4.60
2019-01-17T18:47:49.656Z,4.60
2019-01-17T18:50:30.247Z,4.60
2019-01-17T18:53:00.102Z,4.60
2019-01-17T18:55:31.760Z,4.60
2019-01-17T18:58:01.650Z,4.60
2019-01-17T19:00:32.643Z,4.60
2019-01-17T19:03:02.675Z,4.50
2019-01-17T19:05:32.706Z,4.50
2019-01-17T19:08:02.559Z,4.60
2019-01-17T19:10:32.559Z,4.50
2019-01-17T19:13:02.453Z,4.50
2019-01-17T19:15:33.722Z,4.50
2019-01-17T19:18:03.912Z,4.50
2019-01-17T19:20:34.033Z,4.50
2019-01-17T19:23:04.087Z,4.30
2019-01-17T19:25:33.916Z,4.50
2019-01-17T19:28:03.796Z,4.50
2019-01-17T19:30:33.668Z,4.40
2019-01-17T19:33:03.968Z,4.30
2019-01-17T19:35:33.975Z,4.30
2019-01-17T19:38:05.971Z,4.40
2019-01-17T19:40:35.856Z,4.40
2019-01-17T19:43:05.832Z,4.50
2019-01-17T19:45:35.930Z,4.30
2019-01-17T19:48:09.325Z,4.20
2019-01-17T19:50:39.614Z,4.30
2019-01-17T19:53:10.508Z,4.30
2019-01-17T19:55:40.359Z,4.30
2019-01-17T19:58:10.327Z,4.40
2019-01-17T20:00:40.350Z,4.40
2019-01-17T20:03:10.352Z,4.50
2019-01-17T20:05:40.335Z,4.50
2019-01-17T20:08:10.223Z,4.40
2019-01-17T20:10:40.114Z,4.50
2019-01-17T20:13:10.046Z,4.50
2019-01-17T20:15:39.983Z,4.50
2019-01-17T20:18:10.095Z,4.50
2019-01-17T20:20:39.938Z,4.60
2019-01-17T20:23:09.837Z,4.50
2019-01-17T20:25:39.760Z,4.40
2019-01-17T20:28:09.647Z,4.50
2019-01-17T20:30:39.626Z,4.40
2019-01-17T20:33:09.713Z,4.50
2019-01-17T20:35:39.627Z,4.50
2019-01-17T20:38:09.677Z,4.50
2019-01-17T20:40:39.508Z,4.50
2019-01-17T20:43:09.448Z,4.40
2019-01-17T20:45:39.298Z,4.20
2019-01-17T20:48:09.275Z,4.30
2019-01-17T20:50:39.212Z,4.30
2019-01-17T20:53:09.146Z,4.30
2019-01-17T20:55:39.339Z,4.40
2019-01-17T20:58:10.646Z,4.50
2019-01-17T21:01:05.002Z,4.50
2019-01-17T21:03:35.319Z,4.60
2019-01-17T21:06:05.346Z,4.50
2019-01-17T21:08:35.229Z,4.50
2019-01-17T21:11:05.404Z,4.40
2019-01-17T21:13:35.345Z,4.50
2019-01-17T21:16:05.271Z,4.60
2019-01-17T21:18:35.641Z,4.50
2019-01-17T21:21:05.501Z,4.50
2019-01-17T21:23:35.414Z,4.50
2019-01-17T21:26:05.336Z,4.50
2019-01-17T21:28:35.268Z,4.50
2019-01-17T21:31:05.104Z,4.50
2019-01-17T21:33:34.966Z,4.60
2019-01-17T21:36:05.066Z,4.50
2019-01-17T21:38:35.020Z,4.50
2019-01-17T21:41:04.916Z,4.70
2019-01-17T21:43:34.795Z,4.70
2019-01-17T21:46:05.367Z,4.70
2019-01-17T21:48:35.234Z,4.50
2019-01-17T21:51:05.153Z,4.40
2019-01-17T21:53:35.075Z,4.40
2019-01-17T21:56:05.009Z,4.40
2019-01-17T21:58:34.907Z,4.50
2019-01-17T22:01:04.850Z,4.30
2019-01-17T22:03:34.820Z,4.30
2019-01-17T22:06:04.798Z,4.30
2019-01-17T22:08:34.749Z,4.30
2019-01-17T22:11:04.593Z,4.30
2019-01-17T22:13:34.470Z,4.30
2019-01-17T22:16:04.389Z,4.10
2019-01-17T22:18:34.440Z,4.20
2019-01-17T22:21:04.345Z,4.00
2019-01-17T22:23:35.423Z,3.90
2019-01-17T22:26:05.421Z,4.00
2019-01-17T22:28:35.340Z,4.10
2019-01-17T22:31:05.229Z,4.10
2019-01-17T22:33:35.096Z,4.00
2019-01-17T22:36:04.943Z,4.00
2019-01-17T22:38:34.859Z,4.00
2019-01-17T22:41:04.791Z,4.00
2019-01-17T22:43:34.668Z,4.00
2019-01-17T22:46:04.583Z,4.00
2019-01-17T22:48:34.521Z,3.90
2019-01-17T22:51:04.511Z,3.90
2019-01-17T22:53:34.559Z,3.90
2019-01-17T22:56:04.442Z,4.00
2019-01-17T22:58:34.422Z,3.90
2019-01-17T23:01:18.022Z,4.00
2019-01-17T23:03:49.227Z,4.00
2019-01-17T23:06:19.182Z,4.10
2019-01-17T23:08:49.213Z,4.10
2019-01-17T23:11:19.248Z,4.10
2019-01-17T23:13:49.148Z,4.10
2019-01-17T23:16:19.113Z,4.10
2019-01-17T23:18:49.031Z,4.20
2019-01-17T23:21:19.022Z,4.10
2019-01-17T23:23:48.900Z,4.20
2019-01-17T23:26:18.758Z,4.10
2019-01-17T23:28:48.666Z,3.90
2019-01-17T23:31:18.545Z,4.00
2019-01-17T23:33:48.411Z,4.10
2019-01-17T23:36:18.260Z,4.20
2019-01-17T23:38:48.201Z,4.10
2019-01-17T23:41:18.131Z,4.00
2019-01-17T23:43:48.055Z,3.90
2019-01-17T23:46:18.591Z,3.90
2019-01-17T23:48:48.566Z,4.00
2019-01-17T23:51:18.419Z,4.00
2019-01-17T23:53:48.371Z,4.00
2019-01-17T23:56:18.299Z,4.00
2019-01-17T23:58:48.423Z,4.00
